Time;durP1;ratioP1;P1;durP2;ratioP2;P2;SDS_P1;SDS_P2;PMS_P1;PMS_P2;Temp;Humidity;BMP_temperature;BMP_pressure;BME280_temperature;BME280_humidity;BME280_pressure;Samples;Min_cycle;Max_cycle;Signal;HPM_P1;HPM_P2
2023/08/05 00:01:21;;;;;;;13.82;5.50;;;;;;;;;;5055698;28;20060;-57
2023/08/05 00:03:47;;;;;;;13.13;6.53;;;;;;;;;;5052191;28;20530;-57
2023/08/05 00:06:14;;;;;;;16.73;6.15;;;;;;;;;;5053103;28;20033;-57
2023/08/05 00:08:40;;;;;;;12.98;5.88;;;;;;;;;;5053996;28;20590;-57
2023/08/05 00:11:06;;;;;;;13.02;6.32;;;;;;;;;;5053684;28;20079;-57
2023/08/05 00:13:34;;;;;;;13.98;6.50;;;;;;;;;;5055035;28;20132;-57
2023/08/05 00:16:06;;;;;;;12.57;6.68;;;;;;;;;;5062169;28;20062;-57
2023/08/05 00:18:32;;;;;;;10.25;6.55;;;;;;;;;;5066973;28;20041;-57
2023/08/05 00:20:59;;;;;;;14.48;6.63;;;;;;;;;;5051604;28;20078;-57
2023/08/05 00:23:25;;;;;;;11.00;7.75;;;;;;;;;;5050478;28;20139;-57
2023/08/05 00:25:51;;;;;;;14.75;7.07;;;;;;;;;;5053369;28;20055;-57
2023/08/05 00:28:17;;;;;;;10.93;6.78;;;;;;;;;;5053753;28;20129;-57
2023/08/05 00:30:43;;;;;;;15.88;7.10;;;;;;;;;;5059573;28;20036;-57
2023/08/05 00:33:09;;;;;;;12.77;6.72;;;;;;;;;;5054911;28;20072;-57
2023/08/05 00:35:36;;;;;;;12.68;7.22;;;;;;;;;;5055114;28;20508;-57
2023/08/05 00:38:02;;;;;;;13.32;7.78;;;;;;;;;;5055123;28;20131;-57
2023/08/05 00:40:28;;;;;;;12.57;7.22;;;;;;;;;;5061380;28;20395;-57
2023/08/05 00:42:54;;;;;;;12.98;6.90;;;;;;;;;;5053198;28;20124;-57
2023/08/05 00:45:20;;;;;;;12.88;7.32;;;;;;;;;;5056387;28;20112;-57
2023/08/05 00:47:47;;;;;;;12.52;7.22;;;;;;;;;;5058504;28;20048;-57
2023/08/05 00:50:14;;;;;;;12.23;6.75;;;;;;;;;;5065882;28;20370;-57
2023/08/05 00:52:41;;;;;;;10.30;7.18;;;;;;;;;;5061602;28;20439;-57
2023/08/05 00:55:07;;;;;;;12.77;7.65;;;;;;;;;;5071313;28;20039;-57
2023/08/05 00:57:33;;;;;;;16.63;7.15;;;;;;;;;;5062312;28;20102;-57
2023/08/05 01:00:00;;;;;;;9.32;6.22;;;;;;;;;;5067428;28;20051;-58
2023/08/05 01:02:26;;;;;;;11.48;6.97;;;;;;;;;;5061517;28;20095;-57
2023/08/05 01:04:53;;;;;;;12.02;7.75;;;;;;;;;;5063408;28;20440;-57
2023/08/05 01:07:19;;;;;;;11.80;7.35;;;;;;;;;;5063998;28;20040;-57
2023/08/05 01:09:45;;;;;;;13.05;8.25;;;;;;;;;;5069175;28;20101;-57
2023/08/05 01:12:12;;;;;;;12.70;8.02;;;;;;;;;;5064710;28;20048;-57
2023/08/05 01:14:38;;;;;;;14.95;8.18;;;;;;;;;;5067420;28;20044;-57
2023/08/05 01:17:07;;;;;;;15.27;7.53;;;;;;;;;;5071306;28;20511;-57
2023/08/05 01:19:34;;;;;;;13.77;8.55;;;;;;;;;;5076164;28;20116;-57
2023/08/05 01:22:09;;;;;;;16.65;8.60;;;;;;;;;;5051387;28;20041;-57
2023/08/05 01:24:39;;;;;;;16.67;8.02;;;;;;;;;;5055189;28;20445;-57
2023/08/05 01:27:06;;;;;;;16.90;6.90;;;;;;;;;;5064009;28;20060;-57
2023/08/05 01:29:32;;;;;;;13.77;6.72;;;;;;;;;;5062905;28;20065;-57
2023/08/05 01:31:59;;;;;;;11.15;6.35;;;;;;;;;;5075361;28;20040;-57
2023/08/05 01:34:25;;;;;;;14.93;7.32;;;;;;;;;;5068064;28;20047;-57
2023/08/05 01:36:51;;;;;;;8.43;5.43;;;;;;;;;;5057489;28;20032;-57
2023/08/05 01:39:17;;;;;;;11.55;6.18;;;;;;;;;;5060417;28;20438;-57
2023/08/05 01:41:44;;;;;;;9.93;5.75;;;;;;;;;;5049775;28;20374;-57
2023/08/05 01:44:10;;;;;;;11.45;6.50;;;;;;;;;;5054041;28;20049;-57
2023/08/05 01:46:36;;;;;;;10.48;6.05;;;;;;;;;;5066605;28;20377;-57
2023/08/05 01:49:02;;;;;;;12.68;6.25;;;;;;;;;;5052820;28;20120;-57
2023/08/05 01:51:28;;;;;;;11.02;5.82;;;;;;;;;;5052333;28;20060;-57
2023/08/05 01:53:54;;;;;;;12.48;7.10;;;;;;;;;;5050481;28;20036;-57
2023/08/05 01:56:21;;;;;;;14.82;6.80;;;;;;;;;;5054015;28;20048;-57
2023/08/05 01:58:47;;;;;;;15.32;6.78;;;;;;;;;;5058031;28;20083;-57
2023/08/05 02:01:13;;;;;;;8.90;5.95;;;;;;;;;;5052222;28;20089;-57
2023/08/05 02:03:39;;;;;;;9.75;6.47;;;;;;;;;;5056527;28;20353;-57
2023/08/05 02:06:05;;;;;;;14.55;6.18;;;;;;;;;;5051451;28;20041;-57
2023/08/05 02:08:31;;;;;;;12.93;6.28;;;;;;;;;;5052645;28;20051;-57
2023/08/05 02:10:58;;;;;;;9.25;6.40;;;;;;;;;;5050571;28;20140;-57
2023/08/05 02:13:24;;;;;;;11.70;6.30;;;;;;;;;;5056018;28;20128;-57
2023/08/05 02:15:50;;;;;;;13.55;6.80;;;;;;;;;;5060973;28;20131;-57
2023/08/05 02:18:16;;;;;;;10.15;6.53;;;;;;;;;;5053134;28;20447;-57
2023/08/05 02:20:42;;;;;;;16.58;7.05;;;;;;;;;;5056022;28;20045;-57
2023/08/05 02:23:08;;;;;;;15.32;7.30;;;;;;;;;;5055261;28;20047;-57
2023/08/05 02:25:35;;;;;;;12.80;6.95;;;;;;;;;;5056248;28;20123;-57
2023/08/05 02:28:01;;;;;;;11.13;6.32;;;;;;;;;;5052955;28;20118;-57
2023/08/05 02:30:27;;;;;;;11.98;7.40;;;;;;;;;;5060793;28;20041;-57
2023/08/05 02:32:53;;;;;;;15.07;6.95;;;;;;;;;;5053648;28;20524;-57
2023/08/05 02:35:19;;;;;;;10.30;6.85;;;;;;;;;;5056100;28;20053;-57
2023/08/05 02:37:45;;;;;;;12.90;6.85;;;;;;;;;;5054782;28;20117;-57
2023/08/05 02:40:12;;;;;;;12.05;6.75;;;;;;;;;;5052939;28;20127;-56
2023/08/05 02:42:38;;;;;;;13.98;5.85;;;;;;;;;;5063042;28;20481;-57
2023/08/05 02:45:04;;;;;;;12.82;7.05;;;;;;;;;;5071699;28;20040;-57
2023/08/05 02:47:31;;;;;;;12.82;6.57;;;;;;;;;;5058607;28;20366;-57
2023/08/05 02:49:57;;;;;;;14.75;6.43;;;;;;;;;;5063023;28;20045;-57
2023/08/05 02:52:23;;;;;;;9.77;5.97;;;;;;;;;;5068796;28;20047;-57
2023/08/05 02:54:49;;;;;;;16.55;6.88;;;;;;;;;;5065679;28;20771;-57
2023/08/05 02:57:16;;;;;;;9.15;6.50;;;;;;;;;;5061183;28;20059;-57
2023/08/05 02:59:42;;;;;;;9.20;6.05;;;;;;;;;;5067198;28;20120;-57
2023/08/05 03:02:08;;;;;;;15.30;6.40;;;;;;;;;;5078175;28;20079;-57
2023/08/05 03:04:34;;;;;;;11.30;6.57;;;;;;;;;;5071391;28;20121;-57
2023/08/05 03:07:00;;;;;;;14.23;6.22;;;;;;;;;;5060526;28;20556;-57
2023/08/05 03:09:27;;;;;;;10.68;6.20;;;;;;;;;;5064205;28;20041;-57
2023/08/05 03:11:53;;;;;;;12.30;6.85;;;;;;;;;;5061337;28;20429;-57
2023/08/05 03:14:19;;;;;;;18.52;7.85;;;;;;;;;;5062667;28;20049;-57
2023/08/05 03:16:45;;;;;;;12.73;6.75;;;;;;;;;;5061674;28;20075;-57
2023/08/05 03:19:11;;;;;;;12.07;6.93;;;;;;;;;;5060484;28;20454;-57
2023/08/05 03:21:38;;;;;;;12.07;6.93;;;;;;;;;;5065516;28;20155;-57
2023/08/05 03:24:04;;;;;;;12.27;7.50;;;;;;;;;;5071939;28;20416;-57
2023/08/05 03:26:30;;;;;;;14.00;7.32;;;;;;;;;;5056100;28;20041;-57
2023/08/05 03:28:56;;;;;;;13.20;7.53;;;;;;;;;;5059489;28;20479;-57
2023/08/05 03:31:22;;;;;;;13.15;7.80;;;;;;;;;;5062874;28;20124;-57
2023/08/05 03:33:49;;;;;;;13.13;7.72;;;;;;;;;;5056662;28;20107;-57
2023/08/05 03:36:15;;;;;;;13.77;7.03;;;;;;;;;;5057418;28;20056;-57
2023/08/05 03:38:41;;;;;;;12.85;7.18;;;;;;;;;;5061691;28;20033;-57
2023/08/05 03:41:07;;;;;;;12.75;7.40;;;;;;;;;;5054469;28;20054;-57
2023/08/05 03:43:33;;;;;;;14.00;7.40;;;;;;;;;;5053051;28;20101;-57
2023/08/05 03:45:59;;;;;;;19.48;8.18;;;;;;;;;;5052896;28;20072;-57
2023/08/05 03:48:26;;;;;;;15.13;8.15;;;;;;;;;;5060873;28;20048;-57
2023/08/05 03:50:52;;;;;;;24.77;8.68;;;;;;;;;;5059543;28;20051;-57
2023/08/05 03:53:18;;;;;;;11.23;7.40;;;;;;;;;;5051879;28;20091;-57
2023/08/05 03:55:44;;;;;;;14.43;8.05;;;;;;;;;;5054505;28;20469;-57
2023/08/05 03:58:11;;;;;;;15.07;8.18;;;;;;;;;;5055162;28;20390;-57
2023/08/05 04:00:40;;;;;;;14.77;8.48;;;;;;;;;;5056782;28;20361;-57
2023/08/05 04:03:06;;;;;;;12.50;7.90;;;;;;;;;;5054107;28;20047;-57
2023/08/05 04:05:32;;;;;;;15.43;8.60;;;;;;;;;;5068756;28;20123;-57
2023/08/05 04:07:58;;;;;;;15.95;8.45;;;;;;;;;;5061128;28;20071;-57
2023/08/05 04:10:24;;;;;;;14.57;7.60;;;;;;;;;;5065245;28;20165;-57
2023/08/05 04:12:51;;;;;;;18.60;9.23;;;;;;;;;;5059505;28;20056;-57
2023/08/05 04:15:18;;;;;;;15.18;8.70;;;;;;;;;;5055779;28;20045;-57
2023/08/05 04:17:45;;;;;;;15.00;7.82;;;;;;;;;;5058996;28;20060;-57
2023/08/05 04:20:12;;;;;;;17.45;10.10;;;;;;;;;;5063972;28;20456;-57
2023/08/05 04:22:39;;;;;;;14.30;8.98;;;;;;;;;;5053069;28;20110;-57
2023/08/05 04:25:06;;;;;;;16.67;8.35;;;;;;;;;;5063551;28;20113;-66
2023/08/05 04:27:32;;;;;;;15.57;8.38;;;;;;;;;;5068903;28;20468;-57
2023/08/05 04:29:59;;;;;;;13.95;8.63;;;;;;;;;;5081900;28;20044;-57
2023/08/05 04:32:25;;;;;;;11.50;7.18;;;;;;;;;;5081325;28;20139;-57
2023/08/05 04:34:51;;;;;;;16.05;8.13;;;;;;;;;;5070445;28;20395;-57
2023/08/05 04:37:21;;;;;;;12.98;7.00;;;;;;;;;;5070886;28;20400;-57
2023/08/05 04:39:47;;;;;;;15.82;7.18;;;;;;;;;;5070229;28;20488;-57
2023/08/05 04:42:13;;;;;;;13.02;7.78;;;;;;;;;;5057979;28;20040;-57
2023/08/05 04:44:40;;;;;;;13.95;7.55;;;;;;;;;;5071579;28;20108;-57
2023/08/05 04:47:07;;;;;;;11.52;6.65;;;;;;;;;;5069876;28;20130;-57
2023/08/05 04:49:33;;;;;;;16.42;7.05;;;;;;;;;;5068074;28;20044;-57
2023/08/05 04:51:59;;;;;;;13.98;7.18;;;;;;;;;;5070141;28;20050;-57
2023/08/05 04:54:25;;;;;;;9.90;6.13;;;;;;;;;;5069542;28;20101;-57
2023/08/05 04:56:52;;;;;;;14.82;7.43;;;;;;;;;;5067797;28;20496;-58
2023/08/05 04:59:18;;;;;;;11.07;6.32;;;;;;;;;;5063125;28;20040;-57
2023/08/05 05:01:44;;;;;;;15.25;6.28;;;;;;;;;;5069935;28;20106;-57
2023/08/05 05:04:10;;;;;;;14.07;6.57;;;;;;;;;;5070988;28;20037;-57
2023/08/05 05:06:36;;;;;;;9.70;6.30;;;;;;;;;;5064315;28;20080;-57
2023/08/05 05:09:03;;;;;;;13.40;6.15;;;;;;;;;;5063335;28;20396;-57
2023/08/05 05:11:29;;;;;;;10.52;6.32;;;;;;;;;;5061015;28;20045;-57
2023/08/05 05:13:57;;;;;;;12.68;5.50;;;;;;;;;;5066014;28;20037;-57
2023/08/05 05:16:23;;;;;;;11.57;6.32;;;;;;;;;;5050088;28;20052;-57
2023/08/05 05:18:50;;;;;;;10.40;5.50;;;;;;;;;;5050613;28;20048;-57
2023/08/05 05:21:16;;;;;;;12.00;5.85;;;;;;;;;;5062950;28;20045;-57
2023/08/05 05:23:42;;;;;;;10.82;6.15;;;;;;;;;;5058701;28;20408;-57
2023/08/05 05:26:08;;;;;;;11.35;6.38;;;;;;;;;;5056833;28;20041;-57
2023/08/05 05:28:34;;;;;;;9.52;6.13;;;;;;;;;;5064386;28;20070;-57
2023/08/05 05:31:04;;;;;;;8.52;4.78;;;;;;;;;;5066425;28;20044;-57
2023/08/05 05:33:30;;;;;;;10.30;5.47;;;;;;;;;;5069501;28;20037;-57
2023/08/05 05:35:56;;;;;;;8.90;5.35;;;;;;;;;;5069501;28;20052;-58
2023/08/05 05:38:23;;;;;;;11.68;5.78;;;;;;;;;;5063367;28;20036;-58
2023/08/05 05:40:49;;;;;;;10.73;5.45;;;;;;;;;;5064427;28;20040;-57
2023/08/05 05:43:15;;;;;;;11.57;5.05;;;;;;;;;;5063653;28;20119;-58
2023/08/05 05:45:41;;;;;;;9.73;4.40;;;;;;;;;;5049863;28;20136;-58
2023/08/05 05:48:07;;;;;;;9.68;4.05;;;;;;;;;;5050095;28;20103;-57
2023/08/05 05:50:34;;;;;;;11.63;4.50;;;;;;;;;;5049468;28;20124;-58
2023/08/05 05:53:00;;;;;;;6.43;3.45;;;;;;;;;;5052313;28;20079;-58
2023/08/05 05:55:26;;;;;;;8.25;3.72;;;;;;;;;;5065646;28;20127;-57
2023/08/05 05:57:52;;;;;;;8.32;4.05;;;;;;;;;;5056415;28;20407;-57
2023/08/05 06:00:19;;;;;;;9.30;3.88;;;;;;;;;;5065018;28;20037;-57
2023/08/05 06:02:45;;;;;;;6.75;3.78;;;;;;;;;;5061515;28;20388;-57
2023/08/05 06:05:12;;;;;;;10.55;4.20;;;;;;;;;;5074109;28;20039;-57
2023/08/05 06:07:44;;;;;;;11.50;4.95;;;;;;;;;;5064040;28;20064;-57
2023/08/05 06:10:11;;;;;;;10.05;3.83;;;;;;;;;;5057944;28;20040;-57
2023/08/05 06:12:37;;;;;;;8.80;3.80;;;;;;;;;;5057453;28;20041;-58
2023/08/05 06:15:09;;;;;;;10.63;4.20;;;;;;;;;;5057040;28;20055;-56
2023/08/05 06:17:35;;;;;;;8.43;4.03;;;;;;;;;;5060922;28;20052;-57
2023/08/05 06:20:02;;;;;;;8.18;3.50;;;;;;;;;;5057247;28;20041;-58
2023/08/05 06:22:28;;;;;;;9.00;4.22;;;;;;;;;;5073054;28;20066;-57
2023/08/05 06:24:54;;;;;;;7.55;3.80;;;;;;;;;;5070764;28;20063;-56
2023/08/05 06:27:20;;;;;;;10.82;4.07;;;;;;;;;;5072593;28;20041;-56
2023/08/05 06:29:46;;;;;;;7.80;3.53;;;;;;;;;;5061797;28;20044;-56
2023/08/05 06:32:13;;;;;;;8.25;3.83;;;;;;;;;;5068614;28;20090;-57
2023/08/05 06:34:39;;;;;;;13.43;4.10;;;;;;;;;;5062858;28;20039;-61
2023/08/05 06:37:05;;;;;;;5.95;3.55;;;;;;;;;;5058798;28;20120;-57
2023/08/05 06:39:35;;;;;;;11.50;3.70;;;;;;;;;;5063368;28;20044;-57
2023/08/05 06:42:01;;;;;;;9.50;3.75;;;;;;;;;;5062523;28;20045;-57
2023/08/05 06:44:27;;;;;;;7.90;3.40;;;;;;;;;;5059142;28;20044;-58
2023/08/05 06:46:54;;;;;;;9.25;4.28;;;;;;;;;;5070561;28;22069;-57
2023/08/05 06:49:20;;;;;;;7.22;3.85;;;;;;;;;;5063334;28;20102;-57
2023/08/05 06:51:47;;;;;;;7.60;3.47;;;;;;;;;;5069293;28;20046;-57
2023/08/05 06:54:13;;;;;;;9.50;3.90;;;;;;;;;;5067535;28;20040;-57
2023/08/05 06:56:39;;;;;;;9.48;3.83;;;;;;;;;;5058016;28;20040;-57
2023/08/05 06:59:06;;;;;;;10.57;3.70;;;;;;;;;;5061011;28;20061;-57
2023/08/05 07:01:32;;;;;;;7.70;3.45;;;;;;;;;;5064134;28;20041;-58
2023/08/05 07:03:58;;;;;;;9.95;3.80;;;;;;;;;;5069607;28;20040;-58
2023/08/05 07:06:24;;;;;;;8.05;3.80;;;;;;;;;;5060769;28;20053;-58
2023/08/05 07:08:51;;;;;;;9.35;3.35;;;;;;;;;;5073331;28;20107;-58
2023/08/05 07:11:17;;;;;;;8.77;4.05;;;;;;;;;;5070111;28;20097;-58
2023/08/05 07:13:43;;;;;;;11.63;3.88;;;;;;;;;;5066703;28;20341;-58
2023/08/05 07:16:10;;;;;;;10.25;3.58;;;;;;;;;;5078547;28;20142;-58
2023/08/05 07:18:36;;;;;;;13.63;3.55;;;;;;;;;;5065226;28;20067;-58
2023/08/05 07:21:02;;;;;;;8.30;3.53;;;;;;;;;;5062671;28;20507;-58
2023/08/05 07:23:28;;;;;;;8.35;3.60;;;;;;;;;;5061535;28;20157;-58
2023/08/05 07:25:54;;;;;;;5.60;3.17;;;;;;;;;;5066708;28;20052;-58
2023/08/05 07:28:21;;;;;;;10.65;4.00;;;;;;;;;;5059367;28;20103;-58
2023/08/05 07:30:47;;;;;;;7.57;2.88;;;;;;;;;;5065808;28;20052;-57
2023/08/05 07:33:14;;;;;;;6.40;2.63;;;;;;;;;;5060842;28;20052;-57
2023/08/05 07:35:40;;;;;;;5.68;3.25;;;;;;;;;;5062688;28;20102;-57
2023/08/05 07:38:09;;;;;;;5.38;3.03;;;;;;;;;;5067361;28;20045;-57
2023/08/05 07:40:38;;;;;;;8.38;3.28;;;;;;;;;;5056981;28;20124;-57
2023/08/05 07:43:06;;;;;;;7.65;3.40;;;;;;;;;;5056760;28;20404;-57
2023/08/05 07:45:35;;;;;;;7.35;2.55;;;;;;;;;;5071223;28;20078;-57
2023/08/05 07:48:14;;;;;;;8.35;3.15;;;;;;;;;;5121763;27;20486;-58
2023/08/05 07:50:41;;;;;;;7.00;3.20;;;;;;;;;;5112347;27;20484;-58
2023/08/05 07:53:07;;;;;;;7.63;2.88;;;;;;;;;;5119420;28;20055;-57
2023/08/05 07:55:35;;;;;;;7.75;3.03;;;;;;;;;;5110189;28;20046;-57
2023/08/05 07:58:02;;;;;;;7.30;3.10;;;;;;;;;;5114579;28;20462;-58
2023/08/05 08:00:29;;;;;;;12.27;3.95;;;;;;;;;;5114146;27;20491;-58
2023/08/05 08:02:55;;;;;;;8.65;3.50;;;;;;;;;;5111175;28;20032;-58
2023/08/05 08:05:21;;;;;;;6.70;2.75;;;;;;;;;;5118017;27;20050;-58
2023/08/05 08:07:47;;;;;;;6.00;3.25;;;;;;;;;;5108192;27;20051;-59
2023/08/05 08:10:14;;;;;;;10.90;3.10;;;;;;;;;;5104448;28;20511;-59
2023/08/05 08:12:41;;;;;;;5.30;2.78;;;;;;;;;;5101368;28;20036;-59
2023/08/05 08:15:08;;;;;;;5.55;2.72;;;;;;;;;;5103034;28;20399;-59
2023/08/05 08:17:34;;;;;;;7.68;2.95;;;;;;;;;;5116973;28;20050;-59
2023/08/05 08:20:00;;;;;;;9.60;3.30;;;;;;;;;;5114117;28;20040;-59
2023/08/05 08:22:26;;;;;;;7.45;3.05;;;;;;;;;;5102732;28;20073;-59
2023/08/05 08:24:53;;;;;;;6.10;2.85;;;;;;;;;;5107151;28;20421;-60
2023/08/05 08:27:19;;;;;;;9.38;3.20;;;;;;;;;;5108687;27;20039;-59
2023/08/05 08:29:45;;;;;;;8.23;2.85;;;;;;;;;;5109902;28;20111;-59
2023/08/05 08:32:11;;;;;;;6.63;3.13;;;;;;;;;;5113953;27;20070;-59
2023/08/05 08:34:37;;;;;;;6.75;3.08;;;;;;;;;;5104368;28;20479;-59
2023/08/05 08:37:04;;;;;;;7.85;2.90;;;;;;;;;;5103009;28;20047;-59
2023/08/05 08:39:30;;;;;;;6.40;3.03;;;;;;;;;;5103300;28;20118;-66
2023/08/05 08:41:56;;;;;;;9.75;2.80;;;;;;;;;;5108179;28;20151;-59
2023/08/05 08:44:22;;;;;;;7.40;2.95;;;;;;;;;;5101402;28;20208;-59
2023/08/05 08:46:50;;;;;;;8.18;2.80;;;;;;;;;;5099827;28;20164;-59
2023/08/05 08:49:16;;;;;;;6.38;2.55;;;;;;;;;;5105754;28;20052;-59
2023/08/05 08:51:47;;;;;;;4.75;2.63;;;;;;;;;;5102385;28;20089;-59
2023/08/05 08:54:19;;;;;;;8.10;3.55;;;;;;;;;;5102374;28;20112;-60
2023/08/05 08:56:45;;;;;;;9.98;3.20;;;;;;;;;;5105000;28;20059;-60
2023/08/05 08:59:11;;;;;;;11.32;3.63;;;;;;;;;;5093560;28;20048;-60
2023/08/05 09:01:42;;;;;;;7.30;2.47;;;;;;;;;;5089510;28;20480;-60
2023/08/05 09:04:08;;;;;;;9.13;3.38;;;;;;;;;;5092012;28;20040;-60
2023/08/05 09:06:35;;;;;;;7.40;3.15;;;;;;;;;;5101168;28;20054;-60
2023/08/05 09:09:01;;;;;;;10.13;3.60;;;;;;;;;;5113307;28;20502;-60
2023/08/05 09:11:27;;;;;;;9.70;3.20;;;;;;;;;;5114089;28;20039;-60
2023/08/05 09:13:54;;;;;;;16.80;5.22;;;;;;;;;;5094724;28;20048;-60
2023/08/05 09:16:24;;;;;;;6.03;2.35;;;;;;;;;;5096211;28;20437;-60
2023/08/05 09:18:54;;;;;;;4.07;2.53;;;;;;;;;;5104264;28;20480;-60
2023/08/05 09:21:23;;;;;;;8.35;3.03;;;;;;;;;;5113690;28;20054;-61
2023/08/05 09:23:49;;;;;;;7.75;2.28;;;;;;;;;;5112770;28;20047;-60
2023/08/05 09:26:26;;;;;;;7.78;2.83;;;;;;;;;;5113400;28;20044;-60
2023/08/05 09:28:52;;;;;;;6.95;3.00;;;;;;;;;;5106197;28;20048;-60
2023/08/05 09:31:19;;;;;;;5.05;2.53;;;;;;;;;;5102255;28;20040;-61
2023/08/05 09:33:45;;;;;;;5.85;2.30;;;;;;;;;;5102307;28;20122;-60
2023/08/05 09:36:12;;;;;;;10.13;2.65;;;;;;;;;;5093893;28;20411;-60
2023/08/05 09:38:41;;;;;;;8.40;2.55;;;;;;;;;;5109204;28;20040;-60
2023/08/05 09:41:08;;;;;;;9.75;2.53;;;;;;;;;;5106583;28;20075;-61
2023/08/05 09:43:39;;;;;;;7.95;2.35;;;;;;;;;;5104141;28;20044;-60
2023/08/05 09:46:11;;;;;;;6.47;2.60;;;;;;;;;;5091866;28;20548;-60
2023/08/05 09:48:47;;;;;;;6.15;2.60;;;;;;;;;;5082930;28;20082;-61
2023/08/05 09:51:17;;;;;;;7.68;2.40;;;;;;;;;;5083943;28;20036;-61
2023/08/05 09:53:43;;;;;;;7.45;3.22;;;;;;;;;;5086389;28;20127;-60
2023/08/05 09:56:12;;;;;;;5.43;2.03;;;;;;;;;;5092479;28;20043;-60
2023/08/05 09:58:38;;;;;;;7.78;3.13;;;;;;;;;;5090978;28;20040;-60
2023/08/05 10:01:08;;;;;;;6.38;2.47;;;;;;;;;;5093287;28;20463;-59
2023/08/05 10:03:37;;;;;;;8.27;2.67;;;;;;;;;;5092040;28;20032;-59
2023/08/05 10:06:06;;;;;;;6.47;2.38;;;;;;;;;;5098270;28;20048;-58
2023/08/05 10:08:35;;;;;;;9.25;2.58;;;;;;;;;;5088996;28;20048;-58
2023/08/05 10:11:01;;;;;;;4.93;2.65;;;;;;;;;;5084842;28;20044;-58
2023/08/05 10:13:28;;;;;;;4.72;2.35;;;;;;;;;;5092102;28;20047;-58
2023/08/05 10:15:55;;;;;;;4.78;2.30;;;;;;;;;;5091741;28;20032;-58
2023/08/05 10:18:22;;;;;;;5.65;2.38;;;;;;;;;;5089941;28;20048;-58
2023/08/05 10:20:52;;;;;;;5.10;2.40;;;;;;;;;;5089188;28;20028;-58
2023/08/05 10:23:19;;;;;;;6.38;2.28;;;;;;;;;;5083562;28;20052;-58
2023/08/05 10:25:45;;;;;;;4.32;1.85;;;;;;;;;;5092281;28;20104;-59
2023/08/05 10:28:34;;;;;;;5.00;2.20;;;;;;;;;;5096797;28;20036;-58
2023/08/05 10:31:03;;;;;;;6.35;2.10;;;;;;;;;;5102964;28;20036;-58
2023/08/05 10:33:29;;;;;;;3.95;1.75;;;;;;;;;;5105428;28;20040;-58
2023/08/05 10:36:02;;;;;;;4.32;1.95;;;;;;;;;;5093341;28;20396;-58
2023/08/05 10:38:30;;;;;;;4.85;1.80;;;;;;;;;;5086279;28;20044;-58
2023/08/05 10:41:03;;;;;;;6.03;2.30;;;;;;;;;;5088793;28;20051;-58
2023/08/05 10:43:32;;;;;;;5.90;2.45;;;;;;;;;;5097937;28;20055;-58
2023/08/05 10:45:59;;;;;;;4.32;1.75;;;;;;;;;;5106052;28;20040;-58
2023/08/05 10:48:44;;;;;;;4.50;2.10;;;;;;;;;;5100635;27;20056;-57
2023/08/05 10:51:29;;;;;;;7.80;2.45;;;;;;;;;;5086978;28;20047;-58
2023/08/05 10:53:56;;;;;;;5.45;1.90;;;;;;;;;;5109912;28;20341;-58
2023/08/05 10:56:40;;;;;;;4.20;1.92;;;;;;;;;;5081064;28;20036;-58
2023/08/05 10:59:06;;;;;;;4.97;2.17;;;;;;;;;;5095261;28;21670;-58
2023/08/05 11:01:51;;;;;;;4.15;1.73;;;;;;;;;;5094816;28;20035;-58
2023/08/05 11:04:29;;;;;;;6.93;2.00;;;;;;;;;;5095820;28;20464;-57
2023/08/05 11:06:56;;;;;;;5.05;2.33;;;;;;;;;;5082556;28;20185;-65
2023/08/05 11:09:23;;;;;;;9.18;2.75;;;;;;;;;;5095070;28;20164;-57
2023/08/05 11:11:49;;;;;;;7.15;2.53;;;;;;;;;;5096980;28;20027;-58
2023/08/05 11:14:16;;;;;;;4.75;2.30;;;;;;;;;;5095640;28;20408;-58
2023/08/05 11:16:47;;;;;;;8.15;3.10;;;;;;;;;;5096244;28;20053;-57
2023/08/05 11:19:14;;;;;;;10.65;3.10;;;;;;;;;;5100672;28;20039;-58
2023/08/05 11:21:44;;;;;;;8.00;2.25;;;;;;;;;;5110576;28;20047;-58
2023/08/05 11:24:19;;;;;;;5.50;3.08;;;;;;;;;;5101426;28;20036;-58
2023/08/05 11:26:49;;;;;;;6.30;3.15;;;;;;;;;;5105666;28;20120;-57
2023/08/05 11:29:15;;;;;;;7.80;3.28;;;;;;;;;;5110597;28;20067;-58
2023/08/05 11:31:51;;;;;;;6.57;2.42;;;;;;;;;;5100180;28;20050;-58
2023/08/05 11:34:21;;;;;;;6.45;2.80;;;;;;;;;;5095525;28;20325;-57
2023/08/05 11:36:55;;;;;;;7.05;2.60;;;;;;;;;;5092757;28;20076;-58
2023/08/05 11:39:24;;;;;;;9.45;3.05;;;;;;;;;;5101981;28;20071;-58
2023/08/05 11:41:51;;;;;;;6.90;2.40;;;;;;;;;;5088458;28;20116;-57
2023/08/05 11:44:20;;;;;;;5.18;2.70;;;;;;;;;;5089445;28;20446;-58
2023/08/05 11:46:47;;;;;;;8.05;3.05;;;;;;;;;;5086053;28;20056;-57
2023/08/05 11:49:14;;;;;;;7.28;2.88;;;;;;;;;;5083172;28;20392;-57
2023/08/05 11:51:47;;;;;;;8.02;3.17;;;;;;;;;;5089844;28;20134;-58
2023/08/05 11:54:13;;;;;;;7.88;3.13;;;;;;;;;;5087328;28;20046;-57
2023/08/05 11:56:40;;;;;;;5.88;2.97;;;;;;;;;;5088815;28;20088;-57
2023/08/05 11:59:06;;;;;;;5.13;2.80;;;;;;;;;;5090517;28;20416;-57
2023/08/05 12:01:36;;;;;;;7.28;3.00;;;;;;;;;;5087935;28;20040;-58
2023/08/05 12:04:06;;;;;;;9.27;3.08;;;;;;;;;;5090024;28;20063;-58
2023/08/05 12:06:33;;;;;;;5.97;3.03;;;;;;;;;;5087860;28;20044;-58
2023/08/05 12:09:00;;;;;;;5.82;2.80;;;;;;;;;;5090630;28;20032;-58
2023/08/05 12:11:26;;;;;;;5.75;3.15;;;;;;;;;;5084030;28;20045;-58
2023/08/05 12:13:53;;;;;;;6.47;3.20;;;;;;;;;;5086654;28;20460;-58
2023/08/05 12:16:19;;;;;;;6.85;3.35;;;;;;;;;;5090603;28;20491;-57
2023/08/05 12:18:46;;;;;;;8.43;3.15;;;;;;;;;;5089968;28;20040;-57
2023/08/05 12:21:14;;;;;;;5.85;3.17;;;;;;;;;;5088783;28;20329;-57
2023/08/05 12:23:43;;;;;;;7.60;3.60;;;;;;;;;;5094746;28;20040;-58
2023/08/05 12:26:10;;;;;;;5.57;3.45;;;;;;;;;;5103939;28;20040;-57
2023/08/05 12:28:36;;;;;;;8.73;3.45;;;;;;;;;;5107310;28;20040;-57
2023/08/05 12:31:03;;;;;;;8.77;3.72;;;;;;;;;;5103067;28;20459;-58
2023/08/05 12:33:29;;;;;;;6.90;3.63;;;;;;;;;;5097379;28;20094;-57
2023/08/05 12:35:55;;;;;;;9.25;3.20;;;;;;;;;;5111773;28;20071;-57
2023/08/05 12:38:21;;;;;;;6.68;3.50;;;;;;;;;;5105221;28;20048;-57
2023/08/05 12:40:48;;;;;;;6.80;3.42;;;;;;;;;;5113700;28;20040;-57
2023/08/05 12:43:14;;;;;;;6.28;3.50;;;;;;;;;;5102574;27;20395;-57
2023/08/05 12:45:40;;;;;;;7.57;4.10;;;;;;;;;;5113938;28;20386;-58
2023/08/05 12:48:06;;;;;;;5.95;3.60;;;;;;;;;;5104500;28;20510;-58
2023/08/05 12:50:32;;;;;;;8.60;3.83;;;;;;;;;;5104622;28;20121;-58
2023/08/05 12:52:59;;;;;;;5.53;3.80;;;;;;;;;;5098226;28;20040;-57
2023/08/05 12:55:25;;;;;;;6.50;4.30;;;;;;;;;;5114206;27;20092;-57
2023/08/05 12:57:51;;;;;;;6.57;4.07;;;;;;;;;;5100152;28;20036;-57
2023/08/05 13:00:17;;;;;;;9.85;4.03;;;;;;;;;;5089679;27;20133;-57
2023/08/05 13:02:46;;;;;;;6.82;4.25;;;;;;;;;;5091920;28;20036;-57
2023/08/05 13:05:13;;;;;;;7.65;4.20;;;;;;;;;;5097679;28;20118;-57
2023/08/05 13:07:39;;;;;;;8.93;4.93;;;;;;;;;;5102750;28;20063;-57
2023/08/05 13:10:06;;;;;;;7.60;4.35;;;;;;;;;;5098875;28;20050;-66
2023/08/05 13:12:32;;;;;;;6.47;4.03;;;;;;;;;;5099563;28;20119;-58
2023/08/05 13:14:58;;;;;;;8.70;4.03;;;;;;;;;;5101009;28;20070;-58
2023/08/05 13:17:25;;;;;;;8.77;4.72;;;;;;;;;;5107990;28;20051;-57
2023/08/05 13:19:51;;;;;;;9.95;5.10;;;;;;;;;;5099428;28;20075;-58
2023/08/05 13:22:17;;;;;;;9.50;4.85;;;;;;;;;;5102702;28;20050;-57
2023/08/05 13:24:44;;;;;;;7.78;5.20;;;;;;;;;;5113928;28;20036;-57
2023/08/05 13:27:10;;;;;;;9.70;5.85;;;;;;;;;;5113228;28;20104;-57
2023/08/05 13:29:36;;;;;;;9.00;5.47;;;;;;;;;;5106195;28;20111;-57
2023/08/05 13:32:02;;;;;;;9.15;5.10;;;;;;;;;;5102012;28;20051;-57
2023/08/05 13:34:29;;;;;;;10.57;5.13;;;;;;;;;;5090909;28;20036;-57
2023/08/05 13:36:55;;;;;;;9.63;5.60;;;;;;;;;;5107751;28;20035;-57
2023/08/05 13:39:22;;;;;;;5.78;2.95;;;;;;;;;;5107839;28;20391;-57
2023/08/05 13:41:49;;;;;;;2.33;1.15;;;;;;;;;;5108265;28;20051;-57
2023/08/05 13:44:15;;;;;;;3.22;1.13;;;;;;;;;;5091740;28;20130;-58
2023/08/05 13:46:41;;;;;;;7.43;2.00;;;;;;;;;;5090683;28;20048;-57
2023/08/05 13:49:07;;;;;;;15.93;3.38;;;;;;;;;;5102430;28;20804;-57
2023/08/05 13:51:33;;;;;;;7.22;2.72;;;;;;;;;;5081563;28;20044;-57
2023/08/05 13:54:00;;;;;;;11.68;2.50;;;;;;;;;;5094650;28;20492;-63
2023/08/05 13:56:26;;;;;;;10.88;3.05;;;;;;;;;;5094205;28;20513;-58
2023/08/05 13:58:53;;;;;;;8.48;2.58;;;;;;;;;;5091495;27;20087;-58
2023/08/05 14:01:19;;;;;;;9.88;3.17;;;;;;;;;;5089059;28;20460;-57
2023/08/05 14:03:45;;;;;;;69.93;7.68;;;;;;;;;;5094829;28;20117;-58
2023/08/05 14:06:12;;;;;;;12.82;3.42;;;;;;;;;;5091234;28;20059;-58
2023/08/05 14:08:38;;;;;;;371.48;25.75;;;;;;;;;;5090718;28;20047;-57
2023/08/05 14:11:04;;;;;;;445.25;30.98;;;;;;;;;;5083492;28;20085;-58
2023/08/05 14:13:31;;;;;;;7.05;2.83;;;;;;;;;;5092630;28;20040;-58
2023/08/05 14:15:57;;;;;;;5.68;2.92;;;;;;;;;;5080112;28;20083;-57
2023/08/05 14:18:25;;;;;;;9.10;2.63;;;;;;;;;;5089133;28;20172;-58
2023/08/05 14:20:55;;;;;;;5.60;2.65;;;;;;;;;;5091238;28;20098;-58
2023/08/05 14:23:21;;;;;;;5.50;2.75;;;;;;;;;;5096343;28;20137;-57
2023/08/05 14:25:48;;;;;;;8.30;3.10;;;;;;;;;;5111745;28;20100;-58
2023/08/05 14:28:14;;;;;;;5.80;2.88;;;;;;;;;;5103161;28;20050;-58
2023/08/05 14:30:41;;;;;;;5.07;2.85;;;;;;;;;;5088547;28;20483;-58
2023/08/05 14:33:08;;;;;;;7.25;3.47;;;;;;;;;;5093195;28;20172;-58
2023/08/05 14:35:34;;;;;;;6.47;3.35;;;;;;;;;;5070277;28;20077;-58
2023/08/05 14:38:01;;;;;;;6.13;3.17;;;;;;;;;;5086721;28;20055;-64